Time;durP1;ratioP1;P1;durP2;ratioP2;P2;SDS_P1;SDS_P2;PMS_P1;PMS_P2;Temp;Humidity;BMP_temperature;BMP_pressure;BME280_temperature;BME280_humidity;BME280_pressure;Samples;Min_cycle;Max_cycle;Signal;HPM_P1;HPM_P2
2021/05/01 00:02:14;;;;;;;36.33;19.23;;;;;;;2.78;89.77;101754.13;5052747;28;20052;-69
2021/05/01 00:04:41;;;;;;;33.42;18.42;;;;;;;2.75;90.09;101752.31;5051021;28;20057;-69
2021/05/01 00:07:08;;;;;;;32.83;19.58;;;;;;;2.68;89.76;101750.44;5052623;28;20077;-70
2021/05/01 00:09:37;;;;;;;38.10;21.10;;;;;;;2.72;90.28;101749.63;5054999;28;20049;-68
2021/05/01 00:12:05;;;;;;;36.40;21.58;;;;;;;2.71;90.58;101750.50;5049503;28;20061;-68
2021/05/01 00:14:32;;;;;;;36.25;18.55;;;;;;;2.62;90.97;101739.81;5057503;28;20045;-70
2021/05/01 00:16:59;;;;;;;45.05;23.98;;;;;;;2.74;91.91;101744.38;5051872;28;20119;-69
2021/05/01 00:19:26;;;;;;;42.38;23.30;;;;;;;2.70;91.10;101742.56;5053134;28;20049;-69
2021/05/01 00:21:53;;;;;;;42.83;21.95;;;;;;;2.63;91.04;101738.94;5045886;28;20072;-70
2021/05/01 00:24:20;;;;;;;34.20;19.08;;;;;;;2.61;90.86;101733.66;5047969;28;20191;-70
2021/05/01 00:26:47;;;;;;;37.60;20.52;;;;;;;2.60;91.11;101738.91;5054341;28;20166;-70
2021/05/01 00:29:15;;;;;;;34.97;19.15;;;;;;;2.56;90.96;101743.25;5048547;28;20048;-69
2021/05/01 00:31:42;;;;;;;36.75;21.23;;;;;;;2.51;91.02;101738.78;5048226;28;20049;-70
2021/05/01 00:34:10;;;;;;;27.48;14.15;;;;;;;2.41;90.23;101730.72;5046423;28;20055;-70
2021/05/01 00:36:37;;;;;;;35.90;20.25;;;;;;;2.43;90.86;101734.28;5050621;28;20428;-70
2021/05/01 00:39:06;;;;;;;33.50;19.13;;;;;;;2.38;90.69;101735.03;5050940;28;20059;-70
2021/05/01 00:41:33;;;;;;;31.52;18.27;;;;;;;2.32;90.38;101735.84;5067871;28;20144;-70
2021/05/01 00:44:03;;;;;;;36.22;17.95;;;;;;;2.30;90.69;101734.03;5051641;28;20052;-70
2021/05/01 00:46:31;;;;;;;32.80;17.13;;;;;;;2.29;91.47;101727.88;5052578;28;20065;-70
2021/05/01 00:48:58;;;;;;;28.25;15.15;;;;;;;2.29;91.09;101734.91;5050694;28;20053;-69
2021/05/01 00:51:25;;;;;;;34.00;18.88;;;;;;;2.23;90.87;101725.13;5055190;28;20048;-69
2021/05/01 00:53:52;;;;;;;31.55;18.15;;;;;;;2.24;90.89;101729.56;5053730;28;20049;-70
2021/05/01 00:56:20;;;;;;;31.73;17.83;;;;;;;2.22;91.25;101719.00;5054345;28;20111;-70
2021/05/01 00:58:47;;;;;;;39.38;20.50;;;;;;;2.27;91.73;101723.47;5047000;28;20045;-69
2021/05/01 01:01:18;;;;;;;39.40;22.95;;;;;;;2.25;91.57;101720.81;5054861;28;20217;-70
2021/05/01 01:03:47;;;;;;;40.22;22.77;;;;;;;2.29;92.40;101730.50;5041021;28;20084;-73
2021/05/01 01:06:15;;;;;;;38.75;22.08;;;;;;;2.27;92.14;101720.84;5053147;28;20061;-74
2021/05/01 01:08:43;;;;;;;36.55;18.20;;;;;;;2.19;91.77;101724.19;5051368;28;20060;-74
2021/05/01 01:11:10;;;;;;;33.20;18.45;;;;;;;2.17;91.65;101722.44;5055316;28;20052;-74
2021/05/01 01:13:37;;;;;;;39.20;22.65;;;;;;;2.14;91.78;101717.09;5056079;28;20052;-73
2021/05/01 01:16:05;;;;;;;38.88;20.85;;;;;;;2.13;91.88;101718.84;5053848;28;20456;-73
2021/05/01 01:18:33;;;;;;;39.45;21.60;;;;;;;2.11;91.72;101717.94;5050261;28;20391;-72
2021/05/01 01:21:03;;;;;;;37.00;20.65;;;;;;;2.14;92.61;101719.72;5055380;28;20099;-73
2021/05/01 01:23:33;;;;;;;41.67;21.48;;;;;;;2.10;91.88;101708.25;5041058;22;20061;-92
2021/05/01 01:26:06;;;;;;;44.15;23.35;;;;;;;2.09;92.19;101713.50;5011220;28;20042;-92
2021/05/01 01:28:34;;;;;;;46.70;23.88;;;;;;;2.07;92.24;101704.69;5011563;28;20030;-91
2021/05/01 01:31:03;;;;;;;41.25;18.30;;;;;;;2.05;92.01;101715.19;5012808;28;20049;-92
2021/05/01 01:33:31;;;;;;;41.70;22.35;;;;;;;1.97;92.00;101701.00;5016481;28;20042;-92
2021/05/01 01:36:01;;;;;;;40.38;21.15;;;;;;;2.00;92.13;101706.34;5008439;28;20065;-91
2021/05/01 01:38:32;;;;;;;36.15;18.48;;;;;;;1.97;91.96;101708.91;5019631;28;20038;-91
2021/05/01 01:41:02;;;;;;;38.13;21.70;;;;;;;1.95;92.14;101713.28;5017421;28;20042;-92
2021/05/01 01:43:30;;;;;;;39.67;21.85;;;;;;;1.95;92.16;101708.88;5029922;28;20361;-92
2021/05/01 01:46:05;;;;;;;39.40;22.50;;;;;;;1.98;93.17;101706.31;5016920;28;20044;-91
2021/05/01 01:48:36;;;;;;;47.20;24.38;;;;;;;1.98;93.02;101708.94;5022302;28;20065;-92
2021/05/01 01:51:04;;;;;;;45.85;23.00;;;;;;;1.92;92.82;101708.81;5026524;28;20046;-92
2021/05/01 01:53:38;;;;;;;49.35;25.02;;;;;;;1.95;93.10;101708.00;5030560;28;20416;-91
2021/05/01 01:56:08;;;;;;;44.25;21.65;;;;;;;1.89;92.73;101706.16;5020030;28;20088;-93
2021/05/01 01:58:35;;;;;;;37.08;20.05;;;;;;;1.89;92.53;101707.88;5023853;28;20380;-93
2021/05/01 02:01:07;;;;;;;37.92;19.75;;;;;;;1.82;92.68;101706.88;5019849;28;20061;-92
2021/05/01 02:03:36;;;;;;;37.17;19.05;;;;;;;1.82;92.45;101710.44;5015076;28;20061;-92
2021/05/01 02:06:07;;;;;;;40.40;21.00;;;;;;;1.85;92.81;101709.59;5038992;28;20049;-91
2021/05/01 02:08:36;;;;;;;46.15;23.10;;;;;;;1.80;93.07;101706.88;5022663;28;20044;-91
2021/05/01 02:11:04;;;;;;;33.10;18.50;;;;;;;1.77;92.59;101704.19;5010308;28;20031;-91
2021/05/01 02:13:36;;;;;;;36.42;19.17;;;;;;;1.73;93.03;101699.72;5003729;28;20088;-91
2021/05/01 02:16:05;;;;;;;37.58;19.33;;;;;;;1.74;92.88;101705.88;5015225;28;20042;-91
2021/05/01 02:18:39;;;;;;;43.05;21.88;;;;;;;1.70;93.34;101697.03;5017908;28;20037;-92
2021/05/01 02:21:10;;;;;;;43.30;23.52;;;;;;;1.72;93.41;101691.78;5036058;28;20041;-92
2021/05/01 02:23:43;;;;;;;41.08;20.00;;;;;;;1.66;93.35;101689.94;5023634;28;20070;-93
2021/05/01 02:26:19;;;;;;;39.05;19.88;;;;;;;1.64;92.63;101692.56;5020425;28;20138;-92
2021/05/01 02:28:51;;;;;;;35.42;19.20;;;;;;;1.58;92.68;101689.78;5020944;28;20042;-92
2021/05/01 02:31:20;;;;;;;37.75;19.83;;;;;;;1.64;93.30;101696.94;5027282;28;20042;-92
2021/05/01 02:33:49;;;;;;;38.53;20.75;;;;;;;1.58;93.35;101691.56;5020714;28;20045;-92
2021/05/01 02:36:17;;;;;;;44.92;22.92;;;;;;;1.62;93.70;101689.00;5030867;28;20042;-91
2021/05/01 02:38:50;;;;;;;36.63;21.30;;;;;;;1.62;93.92;101698.66;5034038;28;20046;-92
2021/05/01 02:41:22;;;;;;;29.15;16.88;;;;;;;1.59;93.28;101698.59;5020466;28;20113;-92
2021/05/01 02:43:54;;;;;;;34.28;18.50;;;;;;;1.53;93.51;101688.81;5013992;28;20049;-92
2021/05/01 02:46:25;;;;;;;37.92;19.65;;;;;;;1.53;93.04;101698.47;5020465;28;20497;-92
2021/05/01 02:48:55;;;;;;;41.42;21.73;;;;;;;1.52;93.38;101684.44;5021772;28;20068;-92
2021/05/01 02:51:26;;;;;;;33.17;18.60;;;;;;;1.47;93.07;101691.38;5032324;28;20037;-93
2021/05/01 02:54:01;;;;;;;33.13;18.15;;;;;;;1.38;92.92;101694.72;5020726;28;20100;-93
2021/05/01 02:56:34;;;;;;;44.08;22.33;;;;;;;1.42;93.00;101687.75;5023547;28;20038;-92
2021/05/01 02:59:09;;;;;;;34.85;18.52;;;;;;;1.40;93.50;101684.22;5015507;28;20049;-93
2021/05/01 03:01:40;;;;;;;40.42;20.55;;;;;;;1.40;93.50;101686.84;5035533;28;20038;-92
2021/05/01 03:04:09;;;;;;;36.60;19.83;;;;;;;1.35;93.42;101675.34;5037842;28;20049;-91
2021/05/01 03:06:40;;;;;;;32.45;18.85;;;;;;;1.26;93.20;101681.28;5019676;28;20034;-92
2021/05/01 03:09:10;;;;;;;39.88;21.27;;;;;;;1.24;93.17;101678.66;5018870;28;20145;-91
2021/05/01 03:11:38;;;;;;;36.45;19.10;;;;;;;1.28;93.27;101684.88;5023178;28;20095;-91
2021/05/01 03:14:07;;;;;;;36.13;18.05;;;;;;;1.17;93.10;101679.38;5020087;28;20042;-92
2021/05/01 03:16:35;;;;;;;31.00;16.58;;;;;;;1.14;92.98;101678.44;5021126;28;20042;-91
2021/05/01 03:19:04;;;;;;;34.28;18.15;;;;;;;1.10;92.90;101672.22;5017628;28;20045;-91
2021/05/01 03:21:32;;;;;;;31.40;16.27;;;;;;;1.12;93.33;101670.50;5019356;28;20045;-91
2021/05/01 03:26:49;;;;;;;41.13;20.10;;;;;;;1.06;92.75;101673.91;5025693;28;20064;-92
2021/05/01 03:29:17;;;;;;;35.80;18.27;;;;;;;1.01;92.47;101665.03;5025422;28;20037;-92
2021/05/01 03:31:45;;;;;;;32.83;15.88;;;;;;;1.05;92.88;101677.38;5019200;28;20041;-94
2021/05/01 03:34:17;;;;;;;46.55;21.85;;;;;;;1.10;93.96;101672.22;5037725;28;20064;-92
2021/05/01 03:36:46;;;;;;;38.00;20.38;;;;;;;1.04;93.45;101665.13;4999835;28;20069;-93
2021/05/01 03:39:20;;;;;;;39.30;21.00;;;;;;;1.00;92.98;101676.41;5020417;28;20038;-94
2021/05/01 03:41:53;;;;;;;33.28;17.13;;;;;;;0.98;93.34;101664.97;5018888;28;20052;-93
2021/05/01 03:44:24;;;;;;;30.00;17.90;;;;;;;0.98;93.19;101674.63;5019519;28;20041;-93
2021/05/01 03:46:53;;;;;;;32.38;19.27;;;;;;;1.02;93.67;101676.44;5019720;28;20283;-92
2021/05/01 03:49:28;;;;;;;44.95;24.75;;;;;;;0.99;93.56;101668.47;5019419;28;20133;-92
2021/05/01 03:52:03;;;;;;;50.90;24.55;;;;;;;1.09;93.94;101673.06;5020498;28;20452;-93
2021/05/01 03:54:38;;;;;;;42.30;22.00;;;;;;;0.96;93.84;101664.06;5018484;28;20034;-91
2021/05/01 03:57:17;;;;;;;40.63;20.35;;;;;;;0.98;94.10;101658.84;5021388;28;20073;-93
2021/05/01 03:59:46;;;;;;;36.72;20.10;;;;;;;0.95;93.87;101661.41;5010373;28;20062;-92
2021/05/01 04:02:16;;;;;;;44.10;20.05;;;;;;;0.93;93.30;101670.13;5020384;28;20042;-92
2021/05/01 04:04:47;;;;;;;38.72;20.38;;;;;;;0.88;93.39;101670.91;5025947;28;20133;-92
2021/05/01 04:07:21;;;;;;;36.83;18.58;;;;;;;0.88;93.67;101663.00;5018879;28;20056;-92
2021/05/01 04:09:52;;;;;;;39.72;20.42;;;;;;;0.96;93.83;101663.19;5015933;28;20042;-92
2021/05/01 04:12:24;;;;;;;32.25;17.27;;;;;;;0.90;93.54;101669.19;5021957;28;20047;-91
2021/05/01 04:14:54;;;;;;;33.42;18.48;;;;;;;0.90;93.16;101664.84;5018590;28;20046;-91
2021/05/01 04:17:28;;;;;;;;;;;;;;;0.99;94.11;101672.03;5018025;28;20038;-92
2021/05/01 04:20:02;;;;;;;34.58;15.73;;;;;;;0.97;93.66;101672.81;5014956;28;19956;-92
2021/05/01 04:22:44;;;;;;;33.17;16.08;;;;;;;1.01;93.88;101670.31;5019648;28;20042;-92
2021/05/01 04:25:15;;;;;;;33.55;17.23;;;;;;;0.97;93.84;101659.69;5020950;28;20049;-92
2021/05/01 04:27:48;;;;;;;;;;;;;;;1.08;93.97;101679.19;5019116;28;20064;-92
2021/05/01 04:30:23;;;;;;;29.83;14.75;;;;;;;1.05;93.58;101669.50;5010966;28;20020;-92
2021/05/01 04:32:53;;;;;;;44.25;19.25;;;;;;;1.15;93.92;101665.31;5016890;28;20038;-92
2021/05/01 04:35:22;;;;;;;43.92;20.63;;;;;;;1.28;94.14;101663.84;5014767;28;20042;-92
2021/05/01 04:37:53;;;;;;;40.22;19.77;;;;;;;1.27;94.28;101660.28;5010138;28;20174;-92
2021/05/01 04:40:22;;;;;;;39.95;20.25;;;;;;;1.38;94.38;101675.38;5009033;28;20042;-92
2021/05/01 04:43:03;;;;;;;36.47;19.08;;;;;;;1.42;94.19;101667.59;5015330;28;20874;-93
2021/05/01 04:45:41;;;;;;;34.70;18.20;;;;;;;1.40;93.73;101664.06;5030513;28;20056;-93
2021/05/01 04:48:39;;;;;;;29.95;16.45;;;;;;;1.48;93.76;101666.81;5012034;28;20061;-92
2021/05/01 04:51:14;;;;;;;33.97;15.93;;;;;;;1.44;93.63;101660.59;5035753;28;20108;-92
2021/05/01 04:53:46;;;;;;;26.38;14.55;;;;;;;1.42;93.30;101657.06;5021886;28;20140;-94
2021/05/01 04:56:18;;;;;;;28.80;14.80;;;;;;;1.48;93.72;101658.91;5016368;28;20046;-93
2021/05/01 04:59:04;;;;;;;37.47;18.30;;;;;;;1.53;93.80;101665.16;5016304;28;20041;-92
2021/05/01 05:04:18;;;;;;;45.33;22.80;;;;;;;1.64;93.45;101673.25;5015913;28;20041;-93
2021/05/01 05:06:48;;;;;;;37.10;18.73;;;;;;;1.73;93.90;101670.78;5013270;28;20052;-93
2021/05/01 05:09:30;;;;;;;33.97;18.35;;;;;;;1.83;93.76;101664.81;5016795;28;20081;-92
2021/05/01 05:12:02;;;;;;;33.03;17.30;;;;;;;1.99;93.81;101671.25;5025050;28;20049;-93
2021/05/01 05:14:35;;;;;;;33.53;16.33;;;;;;;2.22;93.74;101665.44;5024483;28;20052;-93
2021/05/01 05:17:05;;;;;;;35.63;17.98;;;;;;;2.55;93.55;101670.31;5018947;28;20049;-93
2021/05/01 05:19:33;;;;;;;34.75;16.88;;;;;;;2.79;92.73;101658.34;5031329;28;20047;-93
2021/05/01 05:22:03;;;;;;;36.38;16.98;;;;;;;3.07;91.63;101669.25;5020537;28;20054;-92
2021/05/01 05:24:36;;;;;;;41.83;20.98;;;;;;;3.36;91.27;101653.75;5022618;28;20057;-93
2021/05/01 05:27:11;;;;;;;36.28;17.95;;;;;;;3.72;90.21;101669.06;5022949;28;20065;-93
2021/05/01 05:29:48;;;;;;;33.55;15.40;;;;;;;4.06;89.57;101671.13;5025606;28;20137;-92
2021/05/01 05:32:19;;;;;;;28.58;15.32;;;;;;;4.34;88.50;101673.97;5031024;28;20132;-92
2021/05/01 05:35:20;;;;;;;29.23;14.52;;;;;;;4.62;87.82;101667.97;5040194;28;20058;-92
2021/05/01 05:38:19;;;;;;;30.50;15.25;;;;;;;4.96;86.16;101672.56;5016988;28;20057;-91
2021/05/01 05:40:53;;;;;;;26.50;13.73;;;;;;;5.30;85.48;101670.03;5022720;28;20049;-91
2021/05/01 05:43:31;;;;;;;27.67;14.63;;;;;;;5.53;84.00;101683.31;5022697;28;20038;-91
2021/05/01 05:46:11;;;;;;;22.65;12.88;;;;;;;5.83;83.76;101677.19;5023162;28;20042;-93
2021/05/01 05:48:49;;;;;;;26.25;13.88;;;;;;;6.01;81.52;101679.03;5004214;28;20042;-93
2021/05/01 05:51:24;;;;;;;24.20;14.15;;;;;;;6.11;81.95;101682.53;5024362;28;20473;-92
2021/05/01 05:54:02;;;;;;;22.92;13.23;;;;;;;6.37;81.02;101690.47;5027523;28;20532;-92
2021/05/01 05:56:36;;;;;;;22.30;12.80;;;;;;;6.58;79.84;101684.25;5011845;28;20068;-92
2021/05/01 05:59:07;;;;;;;20.73;12.55;;;;;;;6.71;78.89;101672.72;5026452;28;20038;-91
2021/05/01 06:01:46;;;;;;;21.92;12.10;;;;;;;7.21;79.78;101668.09;5025217;28;20085;-93
2021/05/01 06:04:34;;;;;;;23.25;13.77;;;;;;;7.34;78.39;101676.00;5008250;28;20042;-91
2021/05/01 06:07:11;;;;;;;17.80;11.30;;;;;;;7.63;77.63;101681.16;5004954;28;20104;-93
2021/05/01 06:09:46;;;;;;;26.05;12.05;;;;;;;7.65;75.82;101680.25;5008362;28;20050;-90
2021/05/01 06:12:21;;;;;;;17.02;10.38;;;;;;;7.90;76.88;101676.53;5024882;28;20132;-92
2021/05/01 06:15:09;;;;;;;17.45;10.68;;;;;;;7.87;76.00;101666.81;5024252;28;20049;-92
2021/05/01 06:17:47;;;;;;;17.35;10.90;;;;;;;8.18;76.02;101671.88;5038099;28;20061;-93
2021/05/01 06:20:29;;;;;;;21.73;11.75;;;;;;;8.75;75.81;101668.66;5025618;28;20057;-92
2021/05/01 06:23:06;;;;;;;20.85;10.77;;;;;;;8.70;72.63;101667.84;5024382;28;20133;-94
2021/05/01 06:25:42;;;;;;;14.88;9.88;;;;;;;9.06;72.60;101669.19;5025704;28;20042;-93
2021/05/01 06:31:09;;;;;;;18.02;9.77;;;;;;;9.15;70.41;101655.75;5024073;28;20079;-92
2021/05/01 06:33:46;;;;;;;15.48;9.23;;;;;;;9.22;70.78;101659.22;5026715;28;20038;-93
2021/05/01 06:36:20;;;;;;;19.83;9.55;;;;;;;9.60;71.04;101662.25;5041087;28;20048;-93
2021/05/01 06:39:04;;;;;;;16.02;9.88;;;;;;;10.09;69.09;101672.13;5008995;28;20077;-92
2021/05/01 06:41:48;;;;;;;18.45;8.93;;;;;;;10.34;67.72;101661.97;5021852;28;20212;-91
2021/05/01 06:44:42;;;;;;;15.45;9.25;;;;;;;10.41;67.87;101668.94;5021224;28;20112;-91
2021/05/01 06:47:20;;;;;;;13.15;8.00;;;;;;;9.79;67.33;101657.50;5022170;28;20041;-93
2021/05/01 06:53:08;;;;;;;19.17;9.57;;;;;;;9.90;68.99;101671.56;5020637;28;20045;-92
2021/05/01 06:55:45;;;;;;;15.05;8.40;;;;;;;9.78;66.32;101663.75;5018965;28;20057;-93
2021/05/01 06:58:39;;;;;;;13.48;6.70;;;;;;;8.81;66.96;101665.94;5022113;28;20141;-92
2021/05/01 07:01:16;;;;;;;11.45;6.72;;;;;;;8.55;69.85;101668.91;5003521;28;20061;-92
2021/05/01 07:03:51;;;;;;;13.73;7.15;;;;;;;9.13;69.35;101662.03;5025296;28;20081;-92
2021/05/01 07:06:28;;;;;;;10.63;6.53;;;;;;;9.39;65.91;101667.00;5018470;28;20050;-92
2021/05/01 07:09:12;;;;;;;12.73;6.93;;;;;;;9.88;65.27;101668.03;5027777;28;20091;-93
2021/05/01 07:11:46;;;;;;;19.35;6.75;;;;;;;10.59;64.73;101664.16;5022281;28;20038;-92
2021/05/01 07:14:22;;;;;;;14.43;6.47;;;;;;;9.68;65.03;101677.22;5017557;28;20042;-94
2021/05/01 07:19:41;;;;;;;15.07;6.53;;;;;;;8.72;67.20;101680.25;5020642;28;20084;-95
2021/05/01 07:22:22;;;;;;;13.57;6.97;;;;;;;9.40;66.10;101667.84;5022258;28;20106;-91
2021/05/01 07:25:06;;;;;;;12.55;7.22;;;;;;;10.46;63.48;101674.19;5027209;28;20041;-93
2021/05/01 07:27:43;;;;;;;11.25;6.72;;;;;;;10.51;62.50;101674.13;5038148;28;20089;-92
2021/05/01 07:30:23;;;;;;;13.38;6.43;;;;;;;11.08;58.73;101675.66;5006354;28;20190;-93
2021/05/01 07:33:27;;;;;;;14.57;6.45;;;;;;;10.86;58.18;101678.75;5021053;28;20042;-93
2021/05/01 07:36:09;;;;;;;10.45;5.60;;;;;;;10.87;57.79;101672.53;5028390;28;20041;-93
2021/05/01 07:38:52;;;;;;;13.05;6.35;;;;;;;11.64;57.21;101668.19;5016172;28;20053;-94
2021/05/01 07:44:37;;;;;;;12.30;6.05;;;;;;;10.66;58.89;101673.84;5018553;28;20053;-92
2021/05/01 07:47:12;;;;;;;13.57;7.47;;;;;;;9.72;60.94;101676.28;5023754;28;20094;-92
2021/05/01 07:49:47;;;;;;;11.93;5.55;;;;;;;9.12;62.80;101674.44;5005463;28;20058;-92
2021/05/01 07:52:18;;;;;;;10.00;5.60;;;;;;;8.95;62.53;101676.44;5020466;28;20046;-91
2021/05/01 07:54:50;;;;;;;9.05;5.90;;;;;;;9.97;59.54;101667.00;5020831;28;20038;-91
2021/05/01 07:57:30;;;;;;;14.52;6.47;;;;;;;10.87;57.15;101664.50;5022848;28;20034;-92
2021/05/01 07:59:59;;;;;;;13.75;6.40;;;;;;;10.78;56.23;101659.38;5021793;28;20051;-91
2021/05/01 08:02:30;;;;;;;13.07;6.28;;;;;;;11.33;56.57;101660.00;5040360;28;20084;-93
2021/05/01 08:05:15;;;;;;;9.05;5.00;;;;;;;10.67;54.21;101664.91;5015758;28;20109;-93
2021/05/01 08:07:45;;;;;;;12.93;6.05;;;;;;;10.44;56.45;101654.69;5015567;28;20050;-93
2021/05/01 08:10:21;;;;;;;7.45;4.72;;;;;;;10.17;56.32;101664.88;5036104;28;20052;-93
2021/05/01 08:12:51;;;;;;;9.18;4.85;;;;;;;9.72;57.79;101670.06;5020712;28;20072;-93
2021/05/01 08:15:30;;;;;;;9.73;5.18;;;;;;;10.92;57.27;101667.97;5020236;28;20037;-92
2021/05/01 08:18:00;;;;;;;11.13;5.32;;;;;;;10.83;54.94;101669.03;5016999;28;20046;-91
2021/05/01 08:20:32;;;;;;;11.77;5.60;;;;;;;11.61;55.34;101667.38;5034215;28;20148;-92
2021/05/01 08:23:06;;;;;;;12.45;6.25;;;;;;;10.87;57.37;101674.31;5017225;28;20088;-93
2021/05/01 08:25:45;;;;;;;11.75;6.93;;;;;;;10.85;57.65;101674.34;5015593;28;20038;-91
2021/05/01 08:28:32;;;;;;;14.15;6.10;;;;;;;10.51;57.95;101688.34;5015181;28;20101;-92
2021/05/01 08:31:05;;;;;;;11.48;6.20;;;;;;;9.79;59.60;101677.06;5029452;28;20061;-91
2021/05/01 08:33:35;;;;;;;12.23;6.10;;;;;;;9.39;60.24;101685.63;5015907;28;20045;-91
2021/05/01 08:36:10;;;;;;;11.82;5.88;;;;;;;9.90;59.06;101679.56;5020046;28;20033;-90
2021/05/01 08:38:41;;;;;;;11.40;5.53;;;;;;;10.93;56.89;101685.75;5001110;28;20042;-90
2021/05/01 08:41:25;;;;;;;15.77;5.00;;;;;;;10.85;55.66;101669.00;5018028;28;20038;-93
2021/05/01 08:44:06;;;;;;;10.82;4.97;;;;;;;11.99;54.08;101666.50;5016002;28;20059;-93
2021/05/01 08:46:38;;;;;;;12.00;5.32;;;;;;;11.74;53.08;101663.50;5018948;28;20056;-92
2021/05/01 08:49:10;;;;;;;12.90;5.25;;;;;;;10.58;57.16;101681.97;5017998;28;20038;-92
2021/05/01 08:51:41;;;;;;;12.38;5.13;;;;;;;11.16;54.36;101677.25;5014131;28;20037;-91
2021/05/01 08:54:12;;;;;;;12.70;4.95;;;;;;;11.62;53.62;101670.00;5031490;28;20074;-92
2021/05/01 08:56:46;;;;;;;11.93;5.40;;;;;;;12.19;51.26;101666.00;5028393;28;20064;-93
2021/05/01 08:59:15;;;;;;;8.23;4.70;;;;;;;11.20;52.49;101670.94;4995786;28;20038;-92
2021/05/01 09:01:50;;;;;;;11.05;4.75;;;;;;;12.22;51.00;101668.56;5014597;28;20037;-93
2021/05/01 09:04:44;;;;;;;8.30;4.18;;;;;;;12.11;49.24;101673.34;5014149;28;20069;-90
2021/05/01 09:07:20;;;;;;;10.80;4.65;;;;;;;13.08;47.83;101663.53;5014762;28;20037;-90
2021/05/01 09:09:54;;;;;;;9.63;5.30;;;;;;;12.73;47.78;101659.19;5017369;28;20038;-91
2021/05/01 09:12:43;;;;;;;10.70;5.07;;;;;;;12.91;46.92;101655.13;5014829;28;20046;-90
2021/05/01 09:15:20;;;;;;;12.63;5.80;;;;;;;12.20;48.57;101664.19;5016858;28;20041;-92
2021/05/01 09:18:06;;;;;;;12.65;5.07;;;;;;;12.62;48.40;101659.50;5015911;28;20042;-91
2021/05/01 09:20:36;;;;;;;9.05;4.70;;;;;;;12.89;48.01;101663.19;5019293;28;20046;-92
2021/05/01 09:23:10;;;;;;;9.88;4.93;;;;;;;12.99;47.45;101658.47;5018040;28;20046;-94
2021/05/01 09:25:53;;;;;;;10.57;5.35;;;;;;;12.76;48.49;101651.06;5027294;28;20045;-95
2021/05/01 09:28:40;;;;;;;10.45;5.28;;;;;;;13.39;46.70;101659.97;5031233;28;20065;-94
2021/05/01 09:31:19;;;;;;;10.43;5.13;;;;;;;12.35;48.13;101657.56;5037172;28;20053;-94
2021/05/01 09:33:50;;;;;;;10.13;4.57;;;;;;;12.74;47.29;101660.09;5023991;28;20057;-94
2021/05/01 09:36:41;;;;;;;10.27;4.10;;;;;;;14.27;45.75;101662.50;5022742;28;20050;-95
2021/05/01 09:39:29;;;;;;;7.35;4.28;;;;;;;12.46;48.06;101653.69;5024291;28;20046;-94
2021/05/01 09:42:13;;;;;;;8.35;4.85;;;;;;;11.88;50.58;101664.03;5022040;28;20084;-95
2021/05/01 09:45:06;;;;;;;8.93;4.88;;;;;;;12.36;49.76;101667.34;5020863;28;20079;-94
2021/05/01 09:47:53;;;;;;;12.30;5.03;;;;;;;11.12;50.77;101669.38;5019905;28;20177;-96
2021/05/01 09:50:29;;;;;;;10.20;5.22;;;;;;;10.98;52.19;101674.97;5022980;28;20033;-95
2021/05/01 09:53:17;;;;;;;10.52;5.13;;;;;;;11.99;50.03;101657.59;5019776;28;20045;-94
2021/05/01 09:56:05;;;;;;;9.98;5.18;;;;;;;12.92;48.59;101654.19;5017119;28;20125;-94
2021/05/01 09:58:57;;;;;;;8.48;4.55;;;;;;;13.65;46.32;101660.94;5004663;28;20102;-96
2021/05/01 10:02:04;;;;;;;11.15;4.70;;;;;;;13.32;45.22;101655.72;5025383;28;20038;-94
2021/05/01 10:08:56;;;;;;;25.48;9.00;;;;;;;12.40;46.90;101663.69;5023593;28;20081;-94
2021/05/01 10:12:45;;;;;;;;;;;;;;;;;;;;;
2021/05/01 10:16:02;;;;;;;9.55;5.53;;;;;;;11.45;50.40;101662.38;5026310;28;20046;-96
2021/05/01 10:19:21;;;;;;;11.02;5.65;;;;;;;11.51;50.93;101664.03;5011032;28;20038;-95
2021/05/01 10:21:59;;;;;;;13.80;5.80;;;;;;;10.62;52.64;101662.34;5022247;28;20101;-93
2021/05/01 10:25:13;;;;;;;14.80;6.30;;;;;;;10.67;53.28;101672.91;5025298;28;20068;-95
2021/05/01 10:35:13;;;;;;;10.77;6.22;;;;;;;11.60;51.44;101666.50;4953192;28;20081;-96
2021/05/01 10:38:54;;;;;;;11.63;5.35;;;;;;;11.88;50.28;101664.03;4940415;29;20039;-95
2021/05/01 10:41:57;;;;;;;;;;;;;;;10.98;52.37;101669.63;4950775;29;20040;-93
2021/05/01 10:44:56;;;;;;;12.70;5.68;;;;;;;11.25;51.93;101665.50;4931209;29;19918;-93
2021/05/01 10:48:15;;;;;;;12.18;7.05;;;;;;;10.92;52.67;101667.97;4946195;29;20055;-93
2021/05/01 10:51:04;;;;;;;11.15;6.32;;;;;;;10.51;54.20;101672.31;5002221;28;20050;-93
2021/05/01 10:58:28;;;;;;;10.85;6.07;;;;;;;12.58;48.49;101668.56;4958483;28;20043;-94
2021/05/01 11:01:09;;;;;;;9.98;6.35;;;;;;;13.26;48.50;101659.44;4955083;28;20047;-94
2021/05/01 11:08:00;;;;;;;10.52;5.57;;;;;;;14.11;45.79;101655.88;4984519;28;20571;-94
2021/05/01 11:11:19;;;;;;;15.27;6.38;;;;;;;13.96;44.45;101659.94;4923849;28;20053;-94
2021/05/01 11:14:15;;;;;;;13.52;6.45;;;;;;;14.35;43.39;101660.44;4977074;28;20066;-91
2021/05/01 11:20:12;;;;;;;10.10;5.53;;;;;;;13.59;44.79;101666.53;4957620;28;20105;-92
2021/05/01 11:26:32;;;;;;;11.63;5.80;;;;;;;14.39;44.24;101663.88;4973822;28;20092;-93
2021/05/01 11:29:51;;;;;;;9.98;5.82;;;;;;;13.24;43.93;101665.75;4974075;28;20038;-93
2021/05/01 11:35:57;;;;;;;8.73;4.90;;;;;;;14.44;43.77;101661.91;4969094;28;20070;-92
2021/05/01 11:38:37;;;;;;;9.40;5.20;;;;;;;13.56;42.25;101670.16;4961379;28;20047;-93
2021/05/01 11:41:39;;;;;;;8.98;5.18;;;;;;;12.81;44.80;101683.09;4975825;28;20053;-92
2021/05/01 11:44:18;;;;;;;8.45;4.97;;;;;;;12.36;45.61;101684.31;4974453;28;20092;-93
2021/05/01 11:47:12;;;;;;;7.80;4.40;;;;;;;12.63;45.26;101679.09;4977687;28;20054;-93
2021/05/01 11:49:53;;;;;;;7.90;4.63;;;;;;;11.85;46.51;101672.16;4998470;28;20081;-93
2021/05/01 11:53:16;;;;;;;8.15;4.22;;;;;;;12.66;44.58;101665.66;4996966;28;20034;-92
2021/05/01 11:56:28;;;;;;;10.95;4.70;;;;;;;13.02;45.12;101669.06;4985838;28;20170;-93
2021/05/01 11:59:26;;;;;;;6.30;4.20;;;;;;;13.87;43.54;101662.94;4994771;28;20062;-92
2021/05/01 12:05:25;;;;;;;8.35;4.03;;;;;;;13.27;45.44;101668.34;5013567;28;20353;-93
2021/05/01 12:12:12;;;;;;;8.70;5.20;;;;;;;12.51;45.96;101670.50;4993488;28;20030;-93
2021/05/01 12:15:49;;;;;;;;;;;;;;;;;;;;;
2021/05/01 12:19:04;;;;;;;8.75;4.20;;;;;;;13.84;39.81;101661.22;4980485;28;20038;-93
2021/05/01 12:22:37;;;;;;;9.13;4.45;;;;;;;14.19;41.49;101668.09;4993646;28;20035;-93
2021/05/01 12:26:07;;;;;;;;;;;;;;;;;;;;;
2021/05/01 12:29:41;;;;;;;8.82;4.35;;;;;;;13.78;44.14;101667.69;4951206;28;20465;-94
2021/05/01 12:39:02;;;;;;;10.52;4.40;;;;;;;13.29;44.48;101660.28;4955366;28;20071;-94
2021/05/01 12:42:38;;;;;;;10.15;4.20;;;;;;;12.77;45.00;101673.38;4963158;28;20051;-93
2021/05/01 12:48:47;;;;;;;9.73;5.00;;;;;;;12.32;45.65;101674.56;5114581;27;20787;-72
2021/05/01 12:51:16;;;;;;;9.18;5.30;;;;;;;12.24;46.83;101679.25;5112347;27;20086;-71
2021/05/01 12:53:43;;;;;;;8.50;4.93;;;;;;;11.86;45.61;101665.88;5118000;27;20050;-72
2021/05/01 12:56:19;;;;;;;9.13;4.80;;;;;;;11.52;47.74;101673.81;5116491;27;20055;-70
2021/05/01 12:58:46;;;;;;;8.38;4.07;;;;;;;11.94;47.31;101660.38;5115677;27;20323;-70
2021/05/01 13:04:15;;;;;;;8.90;4.32;;;;;;;11.67;47.94;101662.78;5099500;27;20648;-75
2021/05/01 13:06:44;;;;;;;8.07;4.57;;;;;;;11.98;46.36;101655.84;5079029;28;20422;-75
2021/05/01 13:09:12;;;;;;;11.70;5.05;;;;;;;12.58;45.86;101656.94;5070939;28;20064;-73
2021/05/01 13:11:39;;;;;;;10.52;5.05;;;;;;;12.66;45.39;101646.91;5079865;28;20304;-70
2021/05/01 13:14:17;;;;;;;11.88;6.00;;;;;;;12.47;48.09;101651.88;5077599;28;20052;-70
2021/05/01 13:17:08;;;;;;;11.00;5.72;;;;;;;12.61;46.77;101654.19;5074940;28;20477;-72
2021/05/01 13:20:13;;;;;;;12.20;6.30;;;;;;;11.85;47.64;101656.13;5076359;28;20052;-73
2021/05/01 13:22:48;;;;;;;9.88;4.97;;;;;;;11.65;48.54;101658.38;5055541;28;20496;-73
2021/05/01 13:25:18;;;;;;;9.43;5.15;;;;;;;11.71;49.38;101659.13;5073722;28;20774;-73